Time;durP1;ratioP1;P1;durP2;ratioP2;P2;SDS_P1;SDS_P2;PMS_P1;PMS_P2;Temp;Humidity;BMP_temperature;BMP_pressure;BME280_temperature;BME280_humidity;BME280_pressure;Samples;Min_cycle;Max_cycle;Signal;HPM_P1;HPM_P2
2023/12/03 00:01:06;;;;;;;25.97;17.07;;;1.50;99.90;;;;;;5036533;28;20187;-63
2023/12/03 00:03:33;;;;;;;24.00;16.97;;;1.40;99.90;;;;;;5036619;28;20274;-64
2023/12/03 00:05:59;;;;;;;22.00;16.17;;;1.40;99.90;;;;;;5035960;28;20232;-63
2023/12/03 00:08:24;;;;;;;24.67;16.00;;;1.50;99.90;;;;;;5036515;28;20577;-64
2023/12/03 00:10:51;;;;;;;27.83;17.73;;;1.50;99.90;;;;;;5036158;28;20186;-63
2023/12/03 00:13:17;;;;;;;25.33;16.47;;;1.40;99.90;;;;;;5036376;28;20185;-64
2023/12/03 00:15:42;;;;;;;27.77;17.53;;;1.40;99.90;;;;;;5036351;28;20532;-63
2023/12/03 00:18:08;;;;;;;26.73;17.87;;;1.40;99.90;;;;;;5036056;28;20184;-64
2023/12/03 00:20:34;;;;;;;27.70;17.73;;;1.40;99.90;;;;;;5036244;28;20180;-63
2023/12/03 00:22:59;;;;;;;28.83;17.73;;;1.30;99.90;;;;;;5036205;28;20179;-63
2023/12/03 00:25:26;;;;;;;28.93;17.80;;;1.30;99.90;;;;;;5035988;28;20214;-64
2023/12/03 00:27:52;;;;;;;27.07;17.80;;;1.40;99.90;;;;;;5036103;28;20179;-64
2023/12/03 00:30:18;;;;;;;29.47;18.07;;;1.20;99.90;;;;;;5036097;28;20187;-64
2023/12/03 00:32:44;;;;;;;29.73;18.20;;;1.10;99.90;;;;;;5035948;28;20190;-64
2023/12/03 00:35:11;;;;;;;28.40;18.37;;;1.00;99.90;;;;;;5036175;28;20633;-63
2023/12/03 00:37:37;;;;;;;28.80;17.53;;;1.00;99.90;;;;;;5035600;28;20183;-63
2023/12/03 00:40:03;;;;;;;29.27;17.47;;;1.00;99.90;;;;;;5035924;28;20181;-64
2023/12/03 00:42:28;;;;;;;29.37;17.47;;;0.90;99.90;;;;;;5035500;28;20187;-64
2023/12/03 00:44:54;;;;;;;27.63;16.70;;;1.00;99.90;;;;;;5035742;28;20234;-64
2023/12/03 00:47:19;;;;;;;28.43;17.33;;;0.90;99.90;;;;;;5035746;28;20237;-64
2023/12/03 00:49:45;;;;;;;26.80;16.73;;;0.90;99.90;;;;;;5035737;28;20187;-64
2023/12/03 00:52:11;;;;;;;28.83;16.87;;;0.90;99.90;;;;;;5035920;28;20528;-64
2023/12/03 00:54:36;;;;;;;25.57;17.00;;;0.90;99.90;;;;;;5035820;28;20183;-63
2023/12/03 00:57:02;;;;;;;28.83;18.83;;;0.90;99.90;;;;;;5035543;28;20186;-64
2023/12/03 00:59:28;;;;;;;29.03;17.87;;;0.90;99.90;;;;;;5035269;28;20207;-64
2023/12/03 01:01:53;;;;;;;31.80;18.10;;;0.90;99.90;;;;;;5035183;28;20179;-63
2023/12/03 01:04:19;;;;;;;30.03;18.00;;;1.00;99.90;;;;;;5035031;28;20671;-64
2023/12/03 01:06:45;;;;;;;26.97;17.53;;;1.00;99.90;;;;;;5035347;28;20215;-64
2023/12/03 01:09:10;;;;;;;31.93;18.83;;;0.90;99.90;;;;;;5035320;28;20651;-63
2023/12/03 01:11:42;;;;;;;29.87;18.23;;;1.00;99.90;;;;;;5035013;28;20186;-63
2023/12/03 01:14:08;;;;;;;30.17;17.07;;;1.00;99.90;;;;;;5035185;28;20195;-65
2023/12/03 01:16:33;;;;;;;30.00;17.87;;;1.00;99.90;;;;;;5035228;28;20179;-63
2023/12/03 01:18:59;;;;;;;30.40;17.83;;;1.00;99.90;;;;;;5034887;28;20600;-63
2023/12/03 01:21:25;;;;;;;29.07;17.53;;;1.00;99.90;;;;;;5038714;28;20182;-64
2023/12/03 01:23:51;;;;;;;29.37;18.43;;;1.00;99.90;;;;;;5055085;28;20547;-63
2023/12/03 01:26:17;;;;;;;32.37;19.50;;;1.00;99.90;;;;;;5054873;28;20216;-63
2023/12/03 01:28:42;;;;;;;34.50;18.90;;;0.90;99.90;;;;;;5054926;28;20183;-64
2023/12/03 01:31:08;;;;;;;32.20;18.83;;;1.00;99.90;;;;;;5054787;28;20269;-64
2023/12/03 01:33:33;;;;;;;33.77;19.73;;;0.90;99.90;;;;;;5054699;28;20188;-62
2023/12/03 01:35:59;;;;;;;32.40;18.00;;;0.90;99.90;;;;;;5054668;28;20186;-64
2023/12/03 01:38:25;;;;;;;31.33;17.93;;;1.00;99.90;;;;;;5054754;28;20611;-64
2023/12/03 01:40:54;;;;;;;33.63;18.57;;;1.00;99.90;;;;;;5054657;28;20175;-64
2023/12/03 01:43:20;;;;;;;30.87;18.93;;;1.00;99.90;;;;;;5054577;28;20182;-64
2023/12/03 01:45:45;;;;;;;30.03;18.93;;;1.00;99.90;;;;;;5054497;28;20563;-62
2023/12/03 01:48:14;;;;;;;33.53;19.63;;;1.00;99.90;;;;;;5054500;28;20178;-64
2023/12/03 01:50:41;;;;;;;34.33;18.80;;;1.00;99.90;;;;;;5054112;28;20628;-64
2023/12/03 01:53:07;;;;;;;33.20;20.40;;;0.80;99.90;;;;;;5053842;28;20176;-64
2023/12/03 01:55:34;;;;;;;31.93;18.67;;;0.80;99.90;;;;;;5054349;28;20179;-64
2023/12/03 01:58:00;;;;;;;38.43;19.50;;;0.90;99.90;;;;;;5054588;28;20175;-64
2023/12/03 02:00:26;;;;;;;33.27;18.23;;;0.90;99.90;;;;;;5054273;28;20179;-64
2023/12/03 02:02:51;;;;;;;35.13;19.10;;;0.90;99.90;;;;;;5054214;28;20197;-64
2023/12/03 02:05:17;;;;;;;37.07;18.53;;;0.90;99.90;;;;;;5054060;28;20238;-64
2023/12/03 02:07:43;;;;;;;32.27;18.33;;;0.90;99.90;;;;;;5053890;28;20179;-64
2023/12/03 02:10:09;;;;;;;31.97;19.00;;;0.90;99.90;;;;;;5054009;28;20183;-64
2023/12/03 02:12:34;;;;;;;34.70;18.23;;;0.90;99.90;;;;;;5054384;28;20261;-63
2023/12/03 02:15:00;;;;;;;36.80;19.23;;;0.90;99.90;;;;;;5053757;28;20190;-64
2023/12/03 02:17:26;;;;;;;34.40;17.50;;;0.90;99.90;;;;;;5053968;28;20189;-64
2023/12/03 02:19:52;;;;;;;35.70;19.23;;;0.80;99.90;;;;;;5053898;28;20188;-64
2023/12/03 02:22:17;;;;;;;34.03;17.97;;;0.80;99.90;;;;;;5053827;28;20182;-63
2023/12/03 02:24:43;;;;;;;33.77;19.13;;;0.80;99.90;;;;;;5053480;28;20643;-64
2023/12/03 02:27:09;;;;;;;32.33;18.43;;;0.80;99.90;;;;;;5053833;28;20702;-64
2023/12/03 02:29:34;;;;;;;34.10;18.97;;;0.80;99.90;;;;;;5053798;28;20255;-64
2023/12/03 02:32:00;;;;;;;32.30;19.13;;;0.80;99.90;;;;;;5053643;28;20186;-64
2023/12/03 02:34:26;;;;;;;35.60;18.57;;;0.80;99.90;;;;;;5053401;28;20263;-64
2023/12/03 02:36:51;;;;;;;30.63;17.93;;;0.70;99.90;;;;;;5053649;28;20273;-64
2023/12/03 02:39:17;;;;;;;30.83;18.80;;;0.70;99.90;;;;;;5053722;28;20206;-64
2023/12/03 02:41:42;;;;;;;31.53;18.67;;;0.70;99.90;;;;;;5053322;28;20258;-64
2023/12/03 02:44:08;;;;;;;32.33;18.80;;;0.70;99.90;;;;;;5053560;28;20258;-64
2023/12/03 02:46:34;;;;;;;30.23;17.07;;;0.70;99.90;;;;;;5053427;28;20222;-64
2023/12/03 02:49:00;;;;;;;31.57;18.53;;;0.60;99.90;;;;;;5053790;28;20525;-64
2023/12/03 02:51:25;;;;;;;35.00;18.63;;;0.70;99.90;;;;;;5053134;28;20607;-64
2023/12/03 02:53:52;;;;;;;31.90;18.27;;;0.60;99.90;;;;;;5053170;28;20257;-64
2023/12/03 02:56:17;;;;;;;33.80;18.10;;;0.60;99.90;;;;;;5053427;28;20202;-64
2023/12/03 02:58:43;;;;;;;30.30;18.63;;;0.50;99.90;;;;;;5053122;28;20178;-64
2023/12/03 03:01:09;;;;;;;29.33;16.07;;;0.50;99.90;;;;;;5053077;28;20233;-64
2023/12/03 03:03:34;;;;;;;35.97;18.70;;;0.60;99.90;;;;;;5053288;28;20178;-64
2023/12/03 03:06:00;;;;;;;34.00;18.90;;;0.60;99.90;;;;;;5051960;28;20719;-64
2023/12/03 03:08:26;;;;;;;37.33;19.27;;;0.50;99.90;;;;;;5052994;28;20178;-65
2023/12/03 03:10:52;;;;;;;32.47;18.77;;;0.40;99.90;;;;;;5053035;28;20179;-64
2023/12/03 03:13:17;;;;;;;34.27;18.60;;;0.50;99.90;;;;;;5053271;28;20185;-64
2023/12/03 03:15:43;;;;;;;36.47;20.07;;;0.50;99.90;;;;;;5053224;28;20563;-64
2023/12/03 03:18:08;;;;;;;32.23;19.70;;;0.50;99.90;;;;;;5053253;28;20265;-64
2023/12/03 03:20:34;;;;;;;36.63;19.40;;;0.40;99.90;;;;;;5053514;28;20187;-63
2023/12/03 03:23:00;;;;;;;34.77;18.77;;;0.40;99.90;;;;;;5053162;28;20667;-64
2023/12/03 03:25:26;;;;;;;34.27;18.60;;;0.50;99.90;;;;;;5052965;28;20309;-64
2023/12/03 03:27:51;;;;;;;37.17;19.27;;;0.50;99.90;;;;;;5053158;28;20210;-65
2023/12/03 03:30:17;;;;;;;33.63;18.17;;;0.50;99.90;;;;;;5053060;28;20179;-64
2023/12/03 03:32:43;;;;;;;35.77;20.67;;;0.60;99.90;;;;;;5035204;28;20176;-64
2023/12/03 03:35:09;;;;;;;32.73;19.07;;;0.50;99.90;;;;;;5052982;28;20178;-64
2023/12/03 03:37:34;;;;;;;38.03;19.20;;;0.60;99.90;;;;;;5053028;28;20514;-64
2023/12/03 03:40:00;;;;;;;36.27;19.30;;;0.60;99.90;;;;;;5053145;28;20171;-65
2023/12/03 03:42:26;;;;;;;31.70;18.67;;;0.60;99.90;;;;;;5053040;28;20624;-64
2023/12/03 03:44:51;;;;;;;33.83;18.60;;;0.60;99.90;;;;;;5052928;28;20168;-64
2023/12/03 03:47:17;;;;;;;36.03;18.47;;;0.60;99.90;;;;;;5052669;28;20180;-64
2023/12/03 03:49:43;;;;;;;38.17;19.43;;;0.50;99.90;;;;;;5052655;28;20215;-64
2023/12/03 03:52:08;;;;;;;35.87;18.77;;;0.60;99.90;;;;;;5052928;28;20183;-64
2023/12/03 03:54:38;;;;;;;38.13;19.37;;;0.50;99.90;;;;;;5053110;28;20171;-63
2023/12/03 03:57:04;;;;;;;32.13;18.47;;;0.50;99.90;;;;;;5052520;28;20168;-64
2023/12/03 03:59:29;;;;;;;34.70;19.10;;;0.50;99.90;;;;;;5052489;28;20210;-64
2023/12/03 04:01:55;;;;;;;34.63;19.00;;;0.50;99.90;;;;;;5052773;28;20188;-64
2023/12/03 04:04:21;;;;;;;37.07;19.63;;;0.50;99.90;;;;;;5052620;28;20225;-64
2023/12/03 04:06:46;;;;;;;35.40;18.57;;;0.50;99.90;;;;;;5052747;28;20206;-64
2023/12/03 04:09:13;;;;;;;36.63;19.23;;;0.50;99.90;;;;;;5052783;28;20624;-64
2023/12/03 04:11:46;;;;;;;35.40;19.33;;;0.50;99.90;;;;;;5052611;28;20210;-64
2023/12/03 04:14:16;;;;;;;37.00;19.93;;;0.50;99.90;;;;;;5052743;28;20176;-63
2023/12/03 04:16:43;;;;;;;39.17;21.00;;;0.50;99.90;;;;;;5053576;28;20253;-64
2023/12/03 04:19:10;;;;;;;37.20;18.93;;;0.50;99.90;;;;;;5055924;28;20175;-64
2023/12/03 04:21:36;;;;;;;34.67;18.93;;;0.60;99.90;;;;;;5056090;28;20174;-64
2023/12/03 04:24:03;;;;;;;37.33;20.20;;;0.60;99.90;;;;;;5056129;28;20185;-64
2023/12/03 04:26:28;;;;;;;36.40;19.70;;;0.50;99.90;;;;;;5055955;28;20203;-64
2023/12/03 04:28:54;;;;;;;40.20;19.10;;;0.60;99.90;;;;;;5055753;28;20186;-65
2023/12/03 04:31:27;;;;;;;35.80;20.83;;;0.50;99.90;;;;;;5055954;28;20189;-64
2023/12/03 04:33:55;;;;;;;36.40;20.07;;;0.50;99.90;;;;;;5055990;28;20177;-64
2023/12/03 04:36:26;;;;;;;38.53;20.73;;;0.50;99.90;;;;;;5055662;28;20535;-64
2023/12/03 04:38:52;;;;;;;37.03;21.03;;;0.60;99.90;;;;;;5055922;28;20173;-64
2023/12/03 04:41:18;;;;;;;37.40;21.70;;;0.60;99.90;;;;;;5055744;28;20212;-64
2023/12/03 04:43:45;;;;;;;40.17;21.07;;;0.50;99.90;;;;;;5055777;28;20206;-64
2023/12/03 04:46:10;;;;;;;33.13;19.10;;;0.50;99.90;;;;;;5055607;28;20226;-63
2023/12/03 04:48:38;;;;;;;38.73;20.77;;;0.60;99.90;;;;;;5055380;28;20179;-64
2023/12/03 04:51:04;;;;;;;37.27;19.63;;;0.50;99.90;;;;;;5055296;28;20632;-64
2023/12/03 04:53:30;;;;;;;36.33;20.80;;;0.50;99.90;;;;;;5037697;28;20194;-64
2023/12/03 04:55:56;;;;;;;39.20;19.87;;;0.50;99.90;;;;;;5055593;28;20207;-64
2023/12/03 04:58:21;;;;;;;41.20;20.17;;;0.40;99.90;;;;;;5055493;28;20220;-62
2023/12/03 05:00:47;;;;;;;40.07;19.73;;;0.40;99.90;;;;;;5055424;28;20612;-63
2023/12/03 05:03:13;;;;;;;37.00;19.70;;;0.30;99.90;;;;;;5055089;28;20689;-63
2023/12/03 05:05:39;;;;;;;36.93;20.03;;;0.40;99.90;;;;;;5055423;28;20269;-64
2023/12/03 05:08:04;;;;;;;37.93;19.57;;;0.40;99.90;;;;;;5037446;28;20214;-64
2023/12/03 05:10:30;;;;;;;36.93;21.03;;;0.30;99.90;;;;;;5055261;28;20174;-64
2023/12/03 05:12:56;;;;;;;36.83;19.20;;;0.30;99.90;;;;;;5055195;28;20172;-64
2023/12/03 05:15:22;;;;;;;37.23;18.80;;;0.40;99.90;;;;;;5055411;28;20183;-63
2023/12/03 05:17:48;;;;;;;38.63;21.03;;;0.40;99.90;;;;;;5054882;28;20509;-64
2023/12/03 05:20:13;;;;;;;38.50;20.97;;;0.30;99.90;;;;;;5055127;28;20183;-64
2023/12/03 05:22:39;;;;;;;40.57;21.27;;;0.40;99.90;;;;;;5054783;28;20254;-64
2023/12/03 05:25:06;;;;;;;47.20;23.07;;;0.40;99.90;;;;;;5054950;28;20285;-64
2023/12/03 05:27:32;;;;;;;41.07;24.60;;;0.30;99.90;;;;;;5054674;28;20176;-64
2023/12/03 05:29:58;;;;;;;43.30;23.13;;;0.30;99.90;;;;;;5054478;28;20554;-64
2023/12/03 05:32:23;;;;;;;38.73;22.07;;;0.20;99.90;;;;;;5055037;28;20266;-64
2023/12/03 05:34:49;;;;;;;43.57;22.37;;;0.30;99.90;;;;;;5054853;28;20313;-64
2023/12/03 05:37:15;;;;;;;42.03;21.90;;;0.30;99.90;;;;;;5054745;28;20170;-64
2023/12/03 05:39:41;;;;;;;40.00;21.03;;;0.30;99.90;;;;;;5054999;28;20183;-64
2023/12/03 05:42:06;;;;;;;36.77;20.23;;;0.30;99.90;;;;;;5054638;28;20253;-65
2023/12/03 05:44:32;;;;;;;37.90;20.33;;;0.30;99.90;;;;;;5054712;28;20637;-64
2023/12/03 05:46:58;;;;;;;35.90;20.07;;;0.40;99.90;;;;;;5054454;28;20284;-64
2023/12/03 05:49:24;;;;;;;39.50;20.77;;;0.40;99.90;;;;;;5054533;28;20627;-63
2023/12/03 05:51:49;;;;;;;38.77;18.97;;;0.50;99.90;;;;;;5054525;28;20186;-64
2023/12/03 05:54:16;;;;;;;35.20;20.13;;;0.50;99.90;;;;;;5054195;28;20206;-64
2023/12/03 05:56:43;;;;;;;37.87;20.20;;;0.60;99.90;;;;;;5054158;28;20563;-65
2023/12/03 05:59:09;;;;;;;33.60;18.93;;;0.50;99.90;;;;;;5054265;28;20179;-64
2023/12/03 06:01:35;;;;;;;33.80;18.27;;;0.40;99.90;;;;;;5054317;28;20205;-64
2023/12/03 06:04:06;;;;;;;35.00;18.13;;;0.50;99.90;;;;;;5054245;28;20178;-63
2023/12/03 06:06:32;;;;;;;32.17;17.97;;;0.40;99.90;;;;;;5014451;28;20692;-64
2023/12/03 06:08:57;;;;;;;30.13;17.37;;;0.40;99.90;;;;;;5014502;28;20176;-63
2023/12/03 06:11:24;;;;;;;28.70;16.00;;;0.50;99.90;;;;;;5014404;28;20259;-63
2023/12/03 06:13:50;;;;;;;32.50;16.73;;;0.50;99.90;;;;;;5014395;28;20580;-64
2023/12/03 06:16:16;;;;;;;30.27;16.03;;;0.50;99.90;;;;;;5014368;28;20540;-64
2023/12/03 06:18:42;;;;;;;30.40;16.30;;;0.60;99.90;;;;;;5014490;28;20185;-64
2023/12/03 06:21:08;;;;;;;27.47;16.23;;;0.50;99.90;;;;;;5013974;28;20242;-64
2023/12/03 06:23:34;;;;;;;29.77;15.83;;;0.50;99.90;;;;;;5014185;28;20183;-63
2023/12/03 06:25:59;;;;;;;28.73;16.20;;;0.60;99.90;;;;;;5014005;28;20254;-64
2023/12/03 06:28:25;;;;;;;27.60;15.07;;;0.80;99.90;;;;;;5014165;28;20263;-64
2023/12/03 06:30:51;;;;;;;31.40;16.60;;;0.60;99.90;;;;;;5014203;28;20234;-64
2023/12/03 06:33:18;;;;;;;28.60;15.20;;;0.60;99.90;;;;;;5014140;28;20184;-64
2023/12/03 06:35:45;;;;;;;32.60;15.80;;;0.60;99.90;;;;;;5013720;28;20637;-64
2023/12/03 06:38:10;;;;;;;25.73;15.13;;;0.70;99.90;;;;;;5013937;28;20238;-63
2023/12/03 06:40:36;;;;;;;28.90;16.13;;;0.80;99.90;;;;;;5008112;28;20258;-63
2023/12/03 06:43:02;;;;;;;28.03;15.20;;;0.70;99.90;;;;;;4994288;28;20216;-63
2023/12/03 06:45:27;;;;;;;30.50;16.00;;;0.70;99.90;;;;;;4994236;28;20612;-64
2023/12/03 06:47:53;;;;;;;26.83;15.00;;;0.70;99.90;;;;;;4994334;28;20268;-64
2023/12/03 06:50:19;;;;;;;29.00;14.93;;;0.70;99.90;;;;;;4995431;28;20176;-64
2023/12/03 06:52:45;;;;;;;28.20;14.50;;;0.70;99.90;;;;;;5013728;28;20542;-64
2023/12/03 06:55:12;;;;;;;28.47;14.70;;;0.70;99.90;;;;;;4999002;28;20330;-63
2023/12/03 06:57:37;;;;;;;26.10;13.23;;;0.70;99.90;;;;;;4994093;28;20176;-63
2023/12/03 07:00:06;;;;;;;21.60;12.90;;;0.70;99.90;;;;;;4994154;28;20188;-63
2023/12/03 07:02:32;;;;;;;23.03;13.37;;;0.80;99.90;;;;;;5006177;28;20184;-64
2023/12/03 07:04:57;;;;;;;25.90;13.83;;;0.70;99.90;;;;;;5027826;28;20316;-62
2023/12/03 07:07:23;;;;;;;27.83;15.67;;;0.80;99.90;;;;;;5053186;28;20184;-64
2023/12/03 07:09:49;;;;;;;26.37;13.43;;;0.80;99.90;;;;;;5052721;28;20620;-63
2023/12/03 07:12:15;;;;;;;24.43;13.23;;;0.80;99.90;;;;;;5053007;28;20200;-63
2023/12/03 07:14:41;;;;;;;26.73;14.43;;;0.90;99.90;;;;;;5053107;28;20181;-64
2023/12/03 07:17:06;;;;;;;21.50;13.37;;;0.90;99.90;;;;;;5052877;28;20178;-64
2023/12/03 07:19:33;;;;;;;25.47;15.10;;;1.00;99.90;;;;;;5052890;28;20240;-64
2023/12/03 07:21:58;;;;;;;23.43;13.50;;;0.90;99.90;;;;;;5052367;28;20533;-63
2023/12/03 07:24:24;;;;;;;23.47;13.47;;;1.00;99.90;;;;;;5051399;28;20187;-63
2023/12/03 07:26:50;;;;;;;23.83;13.53;;;1.00;99.90;;;;;;5052943;28;20664;-64
2023/12/03 07:29:18;;;;;;;24.53;13.93;;;1.00;99.90;;;;;;5053019;28;20185;-64
2023/12/03 07:31:43;;;;;;;25.27;13.43;;;0.90;99.90;;;;;;5052975;28;20497;-63
2023/12/03 07:34:09;;;;;;;20.87;12.87;;;1.00;99.90;;;;;;5035141;28;20241;-63
2023/12/03 07:36:35;;;;;;;26.40;13.43;;;1.00;99.90;;;;;;5052816;28;20563;-63
2023/12/03 07:39:00;;;;;;;23.43;13.33;;;1.00;99.90;;;;;;5052887;28;20637;-63
2023/12/03 07:41:26;;;;;;;22.93;12.77;;;1.00;99.90;;;;;;5052576;28;20640;-63
2023/12/03 07:43:51;;;;;;;21.00;12.57;;;1.00;99.90;;;;;;5052641;28;20636;-63
2023/12/03 07:46:17;;;;;;;22.87;13.67;;;1.10;99.90;;;;;;5052293;28;20731;-63
2023/12/03 07:48:44;;;;;;;22.87;12.33;;;1.10;99.90;;;;;;5053113;28;20179;-63
2023/12/03 07:51:10;;;;;;;23.70;13.13;;;1.00;99.90;;;;;;5053220;28;20527;-62
2023/12/03 07:53:36;;;;;;;24.13;13.73;;;1.00;99.90;;;;;;5056555;28;20604;-64
2023/12/03 07:56:02;;;;;;;23.33;13.03;;;1.10;99.90;;;;;;5056207;28;20214;-63
2023/12/03 07:58:27;;;;;;;23.00;13.03;;;1.10;99.90;;;;;;5056087;28;20176;-63
2023/12/03 08:00:53;;;;;;;21.53;12.53;;;1.10;99.90;;;;;;5056026;28;20208;-63
2023/12/03 08:03:19;;;;;;;21.77;12.77;;;1.20;99.90;;;;;;5056400;28;20193;-63
2023/12/03 08:05:44;;;;;;;20.03;12.17;;;1.20;99.90;;;;;;5038172;28;20240;-63
2023/12/03 08:08:10;;;;;;;20.87;11.67;;;1.10;99.90;;;;;;5055958;28;20624;-62
2023/12/03 08:10:36;;;;;;;23.67;12.57;;;1.20;99.90;;;;;;5056013;28;20183;-63
2023/12/03 08:13:02;;;;;;;24.50;11.60;;;1.20;99.90;;;;;;5056199;28;20182;-63
2023/12/03 08:15:27;;;;;;;21.53;12.57;;;1.30;99.90;;;;;;5037080;28;20198;-63
2023/12/03 08:17:53;;;;;;;20.57;11.40;;;1.30;99.90;;;;;;5036296;28;20178;-63
2023/12/03 08:20:18;;;;;;;18.87;11.87;;;1.30;99.90;;;;;;5036049;28;20620;-64
2023/12/03 08:22:44;;;;;;;23.07;11.57;;;1.30;99.90;;;;;;5036245;28;20625;-64
2023/12/03 08:25:10;;;;;;;20.10;11.27;;;1.20;99.90;;;;;;5036129;28;20411;-63
2023/12/03 08:27:35;;;;;;;19.63;11.50;;;1.20;99.90;;;;;;5036098;28;20196;-63
2023/12/03 08:30:01;;;;;;;23.93;13.37;;;1.30;99.90;;;;;;5036073;28;20241;-63
2023/12/03 08:32:27;;;;;;;18.60;11.63;;;1.40;99.90;;;;;;5035872;28;20637;-64
2023/12/03 08:34:52;;;;;;;20.13;11.67;;;1.40;99.90;;;;;;5036067;28;20202;-63
2023/12/03 08:37:18;;;;;;;20.50;11.27;;;1.40;99.90;;;;;;5036006;28;20202;-64
2023/12/03 08:39:44;;;;;;;18.00;10.33;;;1.40;99.90;;;;;;5035905;28;20218;-64
2023/12/03 08:42:10;;;;;;;17.00;10.17;;;1.40;99.90;;;;;;5036138;28;20211;-60
2023/12/03 08:44:35;;;;;;;16.77;9.87;;;1.50;99.90;;;;;;5035557;28;20254;-65
2023/12/03 08:47:01;;;;;;;15.60;9.73;;;1.40;99.90;;;;;;5035572;28;20269;-64
2023/12/03 08:49:27;;;;;;;17.60;10.27;;;1.40;99.90;;;;;;5035698;28;20183;-62
2023/12/03 08:51:53;;;;;;;16.97;9.67;;;1.60;99.90;;;;;;5035449;28;20182;-63
2023/12/03 08:54:19;;;;;;;16.40;10.10;;;1.70;99.90;;;;;;5035733;28;20179;-63
2023/12/03 08:56:44;;;;;;;17.27;10.17;;;1.70;99.90;;;;;;5035228;28;20191;-63
2023/12/03 08:59:10;;;;;;;15.77;9.67;;;1.80;99.90;;;;;;5035673;28;20261;-62
2023/12/03 09:01:39;;;;;;;17.50;10.30;;;1.80;99.90;;;;;;5035319;28;20222;-63
2023/12/03 09:04:04;;;;;;;16.47;10.20;;;1.90;99.90;;;;;;5034098;28;20175;-62
2023/12/03 09:06:31;;;;;;;17.63;10.60;;;2.00;99.90;;;;;;5035314;28;20210;-63
2023/12/03 09:08:56;;;;;;;18.03;10.97;;;1.90;99.90;;;;;;5035474;28;20174;-63
2023/12/03 09:11:23;;;;;;;17.77;10.70;;;1.90;99.90;;;;;;5035335;28;20186;-62
2023/12/03 09:13:49;;;;;;;15.93;10.37;;;2.00;99.90;;;;;;5031313;28;20632;-63
2023/12/03 09:16:15;;;;;;;19.07;11.30;;;2.00;99.90;;;;;;5034704;28;20191;-63
2023/12/03 09:18:40;;;;;;;16.93;9.60;;;2.00;99.90;;;;;;5034562;28;20275;-63
2023/12/03 09:21:12;;;;;;;17.33;10.43;;;2.10;99.90;;;;;;5034535;28;20176;-64
2023/12/03 09:23:38;;;;;;;14.27;9.33;;;2.10;99.90;;;;;;5034688;28;20256;-63
2023/12/03 09:26:04;;;;;;;17.97;9.93;;;2.00;99.90;;;;;;5034511;28;20577;-63
2023/12/03 09:28:30;;;;;;;17.23;10.77;;;2.10;99.90;;;;;;5034440;28;20194;-60
2023/12/03 09:30:57;;;;;;;18.77;10.53;;;2.10;99.90;;;;;;5034162;28;20184;-61
2023/12/03 09:33:27;;;;;;;17.23;9.97;;;2.20;99.90;;;;;;5034215;28;20183;-61
2023/12/03 09:35:55;;;;;;;17.53;10.47;;;2.20;99.90;;;;;;5034394;28;20171;-61
2023/12/03 09:38:22;;;;;;;15.20;9.90;;;2.20;99.90;;;;;;5033978;28;20672;-61
2023/12/03 09:40:49;;;;;;;14.93;10.00;;;2.30;99.90;;;;;;5034462;28;20183;-62
2023/12/03 09:43:20;;;;;;;18.27;10.83;;;2.40;99.90;;;;;;5034346;28;20241;-62
2023/12/03 09:45:49;;;;;;;17.13;10.00;;;2.40;99.90;;;;;;5016990;28;20235;-61
2023/12/03 09:48:19;;;;;;;17.37;10.50;;;2.60;99.90;;;;;;5034062;28;20176;-63
2023/12/03 09:50:45;;;;;;;15.07;9.67;;;2.50;99.90;;;;;;5016485;28;20180;-62
2023/12/03 09:53:13;;;;;;;14.53;9.67;;;2.60;99.90;;;;;;5033946;28;20183;-61
2023/12/03 09:55:41;;;;;;;17.20;10.97;;;2.50;99.90;;;;;;5033520;28;20172;-62
2023/12/03 09:58:14;;;;;;;15.65;9.48;;;2.60;99.90;;;;;;5033902;28;20337;-62
2023/12/03 10:00:40;;;;;;;13.73;9.20;;;2.50;99.90;;;;;;5033858;28;20282;-61
2023/12/03 10:03:08;;;;;;;15.15;9.55;;;2.60;99.90;;;;;;5033526;28;20550;-61
2023/12/03 10:05:34;;;;;;;15.77;9.35;;;2.60;99.90;;;;;;5033442;28;20321;-61
2023/12/03 10:08:00;;;;;;;17.77;9.57;;;2.70;99.90;;;;;;5033295;28;20553;-61
2023/12/03 10:10:30;;;;;;;16.80;9.33;;;2.80;99.90;;;;;;5033570;28;20179;-61
2023/12/03 10:12:57;;;;;;;14.07;8.87;;;2.90;99.90;;;;;;5033615;28;20175;-62
2023/12/03 10:15:22;;;;;;;15.48;9.82;;;3.00;99.90;;;;;;5033240;28;20184;-62
2023/12/03 10:17:49;;;;;;;15.80;9.33;;;3.00;99.90;;;;;;5033528;28;20631;-61
2023/12/03 10:20:26;;;;;;;15.10;9.27;;;2.90;99.90;;;;;;5033185;28;20699;-62
2023/12/03 10:23:00;;;;;;;15.60;9.90;;;3.00;99.90;;;;;;5033419;28;20617;-63
2023/12/03 10:25:31;;;;;;;16.08;9.70;;;3.00;99.90;;;;;;5033374;28;20202;-62
2023/12/03 10:27:58;;;;;;;15.60;9.45;;;3.00;99.90;;;;;;5033433;28;20237;-62
2023/12/03 10:30:25;;;;;;;15.27;9.00;;;3.10;99.90;;;;;;5032981;28;20187;-62
2023/12/03 10:32:51;;;;;;;14.20;8.95;;;3.00;99.90;;;;;;5033232;28;20211;-62
2023/12/03 10:35:25;;;;;;;17.05;9.95;;;3.10;99.90;;;;;;5033218;28;20175;-62
2023/12/03 10:37:51;;;;;;;14.73;9.18;;;3.20;99.90;;;;;;5033247;28;20225;-63
2023/12/03 10:40:18;;;;;;;16.17;10.27;;;3.20;99.90;;;;;;5033046;28;20236;-61
2023/12/03 10:42:45;;;;;;;15.32;9.43;;;3.30;99.90;;;;;;5033060;28;20221;-62
2023/12/03 10:45:13;;;;;;;14.13;9.02;;;3.40;99.90;;;;;;5033015;28;20183;-61
2023/12/03 10:47:39;;;;;;;15.13;9.33;;;3.30;99.90;;;;;;5032827;28;20652;-62
2023/12/03 10:50:07;;;;;;;15.20;9.40;;;3.30;99.90;;;;;;5033057;28;20172;-62
2023/12/03 10:52:35;;;;;;;16.30;10.07;;;3.40;99.90;;;;;;5032955;28;20186;-62
2023/12/03 10:55:01;;;;;;;17.50;10.70;;;3.50;99.90;;;;;;5032894;28;20190;-62
2023/12/03 10:57:29;;;;;;;17.23;9.80;;;3.60;99.90;;;;;;5033055;28;20176;-62
2023/12/03 11:00:10;;;;;;;16.00;10.18;;;3.50;99.90;;;;;;5032858;28;20754;-62
2023/12/03 11:02:45;;;;;;;16.97;9.80;;;3.40;99.90;;;;;;5033035;28;20195;-62
2023/12/03 11:05:28;;;;;;;17.23;10.70;;;3.40;99.90;;;;;;5032547;28;20237;-61
2023/12/03 11:07:55;;;;;;;15.50;10.03;;;3.50;99.90;;;;;;5032933;28;20186;-62
2023/12/03 11:10:21;;;;;;;15.57;10.83;;;3.60;99.90;;;;;;5032713;28;20654;-62
2023/12/03 11:12:47;;;;;;;14.37;9.23;;;3.40;99.90;;;;;;5032745;28;20184;-61
2023/12/03 11:15:14;;;;;;;16.87;10.43;;;3.30;99.90;;;;;;5032563;28;20560;-62
2023/12/03 11:17:42;;;;;;;15.95;9.65;;;3.30;99.90;;;;;;5032731;28;20278;-62
2023/12/03 11:20:17;;;;;;;16.67;10.48;;;3.30;99.90;;;;;;5032690;28;20222;-62
2023/12/03 11:22:58;;;;;;;17.38;10.73;;;3.30;99.90;;;;;;5032469;28;20153;-62
2023/12/03 11:25:33;;;;;;;15.35;10.57;;;3.40;99.90;;;;;;5032355;28;20667;-61
2023/12/03 11:27:59;;;;;;;17.05;10.18;;;3.30;99.90;;;;;;5036341;28;20631;-62
2023/12/03 11:30:42;;;;;;;14.18;9.20;;;3.20;99.90;;;;;;5036699;28;20319;-62
2023/12/03 11:33:11;;;;;;;15.40;9.98;;;3.30;99.90;;;;;;5036560;28;20178;-62
2023/12/03 11:35:40;;;;;;;16.95;9.95;;;3.30;99.90;;;;;;5036541;28;20184;-62
2023/12/03 11:38:21;;;;;;;15.43;9.63;;;3.30;99.90;;;;;;5036547;28;20187;-62
2023/12/03 11:40:47;;;;;;;17.23;10.38;;;3.30;99.90;;;;;;5036536;28;20171;-62
2023/12/03 11:43:26;;;;;;;16.30;9.60;;;3.30;99.90;;;;;;5036434;28;20199;-62
2023/12/03 11:45:53;;;;;;;17.92;11.30;;;3.40;99.90;;;;;;5036349;28;20199;-62
2023/12/03 11:48:19;;;;;;;15.85;10.50;;;3.40;99.90;;;;;;5036409;28;20176;-62
2023/12/03 11:50:48;;;;;;;15.47;9.80;;;3.40;99.90;;;;;;5036222;28;20374;-63
2023/12/03 11:53:15;;;;;;;15.07;9.33;;;3.40;99.90;;;;;;5036265;28;20258;-62
2023/12/03 11:55:44;;;;;;;15.60;9.70;;;3.40;99.90;;;;;;5036139;28;20819;-62
2023/12/03 11:58:10;;;;;;;15.00;9.18;;;3.20;99.90;;;;;;5036060;28;20187;-61
2023/12/03 12:00:38;;;;;;;14.32;9.18;;;3.40;99.90;;;;;;5036067;28;20186;-62
2023/12/03 12:03:05;;;;;;;15.90;9.27;;;3.40;99.90;;;;;;5036338;28;20178;-62
2023/12/03 12:05:31;;;;;;;15.18;9.88;;;3.30;99.90;;;;;;5035726;28;20773;-62
2023/12/03 12:08:04;;;;;;;13.38;8.38;;;3.40;99.90;;;;;;5036045;28;20171;-62
2023/12/03 12:10:34;;;;;;;13.77;8.93;;;3.30;99.90;;;;;;5036041;28;20207;-62
2023/12/03 12:13:03;;;;;;;15.63;8.73;;;3.30;99.90;;;;;;5036092;28;20183;-61
2023/12/03 12:15:30;;;;;;;15.25;9.15;;;3.30;99.90;;;;;;5036166;28;20183;-62
2023/12/03 12:17:55;;;;;;;14.05;8.40;;;3.30;99.90;;;;;;5035930;28;20621;-62
2023/12/03 12:20:30;;;;;;;15.93;9.53;;;3.30;99.90;;;;;;5035816;28;20190;-62
2023/12/03 12:22:57;;;;;;;13.97;8.87;;;3.30;99.90;;;;;;5035860;28;20179;-62
2023/12/03 12:25:27;;;;;;;13.10;7.70;;;3.50;99.90;;;;;;5035554;28;20215;-62
2023/12/03 12:27:54;;;;;;;12.87;8.67;;;3.60;99.90;;;;;;5036119;28;20171;-62
2023/12/03 12:30:24;;;;;;;12.43;7.95;;;3.70;99.90;;;;;;5035827;28;20608;-61
2023/12/03 12:32:54;;;;;;;17.48;9.55;;;3.70;99.90;;;;;;5035796;28;20171;-61
2023/12/03 12:35:22;;;;;;;12.50;7.80;;;3.70;99.90;;;;;;5035713;28;20200;-62